Letňany Airfield

LKLT · Hlavní město Praha, 捷克

罗盘
风向 的 风向 090° Letňany Airfield 5L/23R
风: 4 kt, 2 beaufort

3 kt

3 kt
改变
0 ft 1.000 2.000 3.000 4.000 5.000
CAVOK
METAR LKKB 242200Z 09004KT CAVOK 14/13 Q1017

METAR Letňany Airfield - LKLT

Letňany Airfield是,捷克中的小机场。 该机场位于纬度50,13161和经度14,52641。 该机场有2条跑道: 5L/23R 和 5R/23L. 本场的ICAO机场代码为LKLT。 机场在Praha FIR中。

该航空气象观测是针对Kbely Air Base在2024年5月25日 00:00, 当地时间进行的。

机场观察

风向为090°,速度为4 kt。

天气为CAVOK。这意味着在5.000 ft或MSA(最低安全高度)以下(以较高者为准)以下没有云。这也意味着没有观测到积雨云或高耸的积云,可见度为10 km 或者更多或更高。此外,不会有雾,降雨或其他重要天气。

温度和风寒是14 °C。 露点为13 °C,相对湿度为94%。 海平面上的气压为1017 hPa (QNH)。

白天

今天,太阳从05:03升起,在20:54降落。 这适用于Letňany Airfield,世界夏令时可能有所不同。 当地时间与世界标准时间之间的时差为+2 小时。 夏令时目前正在进行中。

公司介绍

在这个机场,你可以找到飞行学校。 本场上唯一已知的公司是Alpha Aviation。

体会

到Vliegles.nl去找飞行课程,跳伞和其他飞行体验。 浏览页面,了解Letňany Airfield附近所有可用的活动。 你也可以使用搜索功能来寻找你所在地附近的特定飞行课程、跳伞或其他飞行体验。

跑道

Id 标题 侧风 逆风 侧风 %
5L/23R 046°-226° 3 kt 3 kt 69 %
5R/23L 051°-231° 3 kt 3 kt 63 %

逆风成分最大的方向会被突出显示,并用于横风计算。 这并不一定意味着这个方向在使用。

温度 & 天气

温度 14 °C
露点 13 °C
相对湿度 94%
Kp-index 0 (0-9)

白天

日出
05:03 (4:22)
中午
12:58
日落
20:53

小工具

你想在你的网站上有一个关于Letňany Airfield的当前航空天气(METAR)的小部件吗?

显示HTML代码
报告变更